createdAt,value
2016-07-10T00:00:34.218Z,0
2016-07-10T00:01:34.273Z,0
2016-07-10T00:02:34.276Z,0
2016-07-10T00:03:34.247Z,0
2016-07-10T00:04:34.300Z,0
2016-07-10T00:05:34.326Z,0
2016-07-10T00:06:34.324Z,0
2016-07-10T00:07:34.308Z,0
2016-07-10T00:08:34.323Z,0
2016-07-10T00:09:34.354Z,0
2016-07-10T00:10:34.388Z,0
2016-07-10T00:11:34.318Z,0
2016-07-10T00:12:34.337Z,0
2016-07-10T00:13:34.350Z,0
2016-07-10T00:14:34.404Z,0
2016-07-10T00:15:34.418Z,0
2016-07-10T00:16:34.406Z,0
2016-07-10T00:17:34.412Z,0
2016-07-10T00:18:34.409Z,0
2016-07-10T00:19:34.445Z,0
2016-07-10T00:20:34.462Z,0
2016-07-10T00:21:34.414Z,0
2016-07-10T00:22:34.481Z,0
2016-07-10T00:23:34.490Z,0
2016-07-10T00:24:34.478Z,0
2016-07-10T00:25:34.493Z,0
2016-07-10T00:26:34.498Z,0
2016-07-10T00:27:34.506Z,0
2016-07-10T00:28:34.461Z,0
2016-07-10T00:29:34.503Z,0
2016-07-10T00:30:34.530Z,0
2016-07-10T00:31:34.544Z,0
2016-07-10T00:32:34.544Z,0
2016-07-10T00:33:34.533Z,0
2016-07-10T00:34:34.544Z,0
2016-07-10T00:35:34.513Z,0
2016-07-10T00:36:34.575Z,0
2016-07-10T00:37:34.643Z,0
2016-07-10T00:38:34.599Z,0
2016-07-10T00:39:34.625Z,0
2016-07-10T00:40:34.632Z,0
2016-07-10T00:41:34.594Z,0
2016-07-10T00:42:34.631Z,0
2016-07-10T00:43:34.620Z,0
2016-07-10T00:44:34.652Z,0
2016-07-10T00:45:34.642Z,0
2016-07-10T00:46:34.700Z,0
2016-07-10T00:47:34.659Z,0
2016-07-10T00:48:34.678Z,0
2016-07-10T00:49:34.704Z,0
2016-07-10T00:50:34.725Z,0
2016-07-10T00:51:34.720Z,0
2016-07-10T00:52:34.751Z,0
2016-07-10T00:53:34.735Z,0
2016-07-10T00:54:34.769Z,0
2016-07-10T00:55:34.696Z,0
2016-07-10T00:56:34.779Z,0
2016-07-10T00:57:34.821Z,0
2016-07-10T00:58:34.799Z,0
2016-07-10T00:59:34.819Z,0
2016-07-10T01:00:34.806Z,0
2016-07-10T01:01:34.766Z,0
2016-07-10T01:02:34.813Z,0
2016-07-10T01:03:34.816Z,0
2016-07-10T01:04:34.804Z,0
2016-07-10T01:05:34.821Z,0
2016-07-10T01:06:34.849Z,0
2016-07-10T01:07:34.903Z,0
2016-07-10T01:08:34.891Z,0
2016-07-10T01:09:34.896Z,0
2016-07-10T01:10:34.860Z,0
2016-07-10T01:11:34.923Z,0
2016-07-10T01:12:34.927Z,0
2016-07-10T01:13:34.889Z,0
2016-07-10T01:14:34.876Z,0
2016-07-10T01:15:34.940Z,0
2016-07-10T01:16:34.948Z,0
2016-07-10T01:17:34.915Z,0
2016-07-10T01:18:34.944Z,0
2016-07-10T01:19:34.997Z,0
2016-07-10T01:20:34.971Z,0
2016-07-10T01:21:35.025Z,0
2016-07-10T01:22:35.037Z,0
2016-07-10T01:23:34.974Z,0
2016-07-10T01:24:35.040Z,0
2016-07-10T01:25:35.036Z,0
2016-07-10T01:26:35.046Z,0
2016-07-10T01:27:35.018Z,0
2016-07-10T01:28:35.012Z,0
2016-07-10T01:29:35.039Z,0
2016-07-10T01:30:35.078Z,0
2016-07-10T01:31:35.067Z,0
2016-07-10T01:32:35.104Z,0
2016-07-10T01:33:35.111Z,0
2016-07-10T01:34:35.086Z,0
2016-07-10T01:35:35.070Z,0
2016-07-10T01:36:35.159Z,0
2016-07-10T01:37:35.121Z,0
2016-07-10T01:38:35.236Z,0
2016-07-10T01:39:35.129Z,0
2016-07-10T01:40:35.182Z,0
2016-07-10T01:41:35.169Z,0
2016-07-10T01:42:35.148Z,0
2016-07-10T01:43:35.188Z,0
2016-07-10T01:44:35.194Z,0
2016-07-10T01:45:35.190Z,0
2016-07-10T01:46:35.233Z,0
2016-07-10T01:47:35.201Z,0
2016-07-10T01:48:35.234Z,0
2016-07-10T01:49:35.251Z,0
2016-07-10T01:50:35.260Z,0
2016-07-10T01:51:35.234Z,0
2016-07-10T01:52:35.240Z,0
2016-07-10T01:53:35.258Z,0
2016-07-10T01:54:35.272Z,0
2016-07-10T01:55:35.288Z,0
2016-07-10T01:56:35.339Z,0
2016-07-10T01:57:35.382Z,0
2016-07-10T01:58:35.329Z,0
2016-07-10T01:59:35.329Z,0
2016-07-10T02:00:35.317Z,0
2016-07-10T02:01:35.336Z,0
2016-07-10T02:02:35.353Z,0
2016-07-10T02:03:35.366Z,0
2016-07-10T02:04:35.401Z,0
2016-07-10T02:05:35.363Z,0
2016-07-10T02:06:35.395Z,0
2016-07-10T02:07:35.428Z,0
2016-07-10T02:08:35.430Z,0
2016-07-10T02:09:35.435Z,0
2016-07-10T02:10:35.427Z,0
2016-07-10T02:11:35.447Z,0
2016-07-10T02:12:35.467Z,0
2016-07-10T02:13:35.476Z,0
2016-07-10T02:14:35.485Z,0
2016-07-10T02:15:35.485Z,0
2016-07-10T02:16:35.499Z,0
2016-07-10T02:17:35.486Z,0
2016-07-10T02:18:35.504Z,0
2016-07-10T02:19:35.542Z,0
2016-07-10T02:20:35.517Z,0
2016-07-10T02:21:35.528Z,0
2016-07-10T02:22:35.584Z,0
2016-07-10T02:23:35.531Z,0
2016-07-10T02:24:35.519Z,0
2016-07-10T02:25:35.560Z,0
2016-07-10T02:26:35.585Z,0
2016-07-10T02:27:35.602Z,0
2016-07-10T02:28:35.620Z,0
2016-07-10T02:29:35.587Z,0
2016-07-10T02:30:35.566Z,0
2016-07-10T02:31:35.620Z,0
2016-07-10T02:32:35.664Z,0
2016-07-10T02:33:35.668Z,0
2016-07-10T02:34:35.667Z,0
2016-07-10T02:35:35.672Z,0
2016-07-10T02:36:35.665Z,0
2016-07-10T02:37:35.683Z,0
2016-07-10T02:38:35.764Z,0
2016-07-10T02:39:35.640Z,0
2016-07-10T02:40:35.736Z,0
2016-07-10T02:41:35.721Z,0
2016-07-10T02:42:35.713Z,0
2016-07-10T02:43:35.749Z,0
2016-07-10T02:44:35.768Z,0
2016-07-10T02:45:35.764Z,0
2016-07-10T02:46:35.729Z,0
2016-07-10T02:47:35.740Z,0
2016-07-10T02:48:35.762Z,0
2016-07-10T02:49:35.737Z,0
2016-07-10T02:50:35.787Z,0
2016-07-10T02:51:35.799Z,0
2016-07-10T02:52:35.856Z,0
2016-07-10T02:53:35.868Z,0
2016-07-10T02:54:35.825Z,0
2016-07-10T02:55:35.842Z,0
2016-07-10T02:56:35.853Z,0
2016-07-10T02:57:35.847Z,0
2016-07-10T02:58:35.854Z,0
2016-07-10T02:59:35.840Z,0
2016-07-10T03:00:35.890Z,0
2016-07-10T03:01:35.924Z,0
2016-07-10T03:02:35.858Z,0
2016-07-10T03:03:35.934Z,0
2016-07-10T03:04:35.897Z,0
2016-07-10T03:05:35.899Z,0
2016-07-10T03:06:35.974Z,0
2016-07-10T03:07:35.955Z,0
2016-07-10T03:08:35.962Z,0
2016-07-10T03:09:35.960Z,0
2016-07-10T03:10:36.007Z,0
2016-07-10T03:11:35.943Z,0
2016-07-10T03:12:35.975Z,0
2016-07-10T03:13:36.018Z,0
2016-07-10T03:14:35.984Z,0
2016-07-10T03:15:36.016Z,0
2016-07-10T03:16:36.041Z,0
2016-07-10T03:17:36.026Z,0
2016-07-10T03:18:36.056Z,0
2016-07-10T03:19:36.102Z,0
2016-07-10T03:20:36.039Z,0
2016-07-10T03:21:36.118Z,0
2016-07-10T03:22:36.060Z,0
2016-07-10T03:23:36.119Z,0
2016-07-10T03:24:36.100Z,0
2016-07-10T03:25:36.136Z,0
2016-07-10T03:26:36.129Z,0
2016-07-10T03:27:36.123Z,0
2016-07-10T03:28:36.126Z,0
2016-07-10T03:29:36.144Z,0
2016-07-10T03:30:36.139Z,0
2016-07-10T03:31:36.151Z,0
2016-07-10T03:32:36.124Z,0
2016-07-10T03:33:36.158Z,0
2016-07-10T03:34:36.209Z,0
2016-07-10T03:35:36.194Z,0
2016-07-10T03:36:36.163Z,0
2016-07-10T03:37:36.250Z,0
2016-07-10T03:38:36.272Z,0
2016-07-10T03:39:36.249Z,0
2016-07-10T03:40:36.227Z,0
2016-07-10T03:41:36.200Z,0
2016-07-10T03:42:36.233Z,0
2016-07-10T03:43:36.264Z,0
2016-07-10T03:44:36.297Z,0
2016-07-10T03:45:36.258Z,0
2016-07-10T03:46:36.292Z,0
2016-07-10T03:47:36.314Z,0
2016-07-10T03:48:36.266Z,0
2016-07-10T03:49:36.336Z,0
2016-07-10T03:50:36.368Z,0
2016-07-10T03:51:36.331Z,0
2016-07-10T03:52:36.375Z,0
2016-07-10T03:53:36.356Z,0
2016-07-10T03:54:36.374Z,0
2016-07-10T03:55:36.370Z,0
2016-07-10T03:56:36.423Z,0
2016-07-10T03:57:36.394Z,0
2016-07-10T03:58:36.406Z,0
2016-07-10T03:59:36.426Z,5
2016-07-10T04:00:36.406Z,5
2016-07-10T04:01:36.442Z,5
2016-07-10T04:02:36.424Z,5
2016-07-10T04:03:36.439Z,5
2016-07-10T04:04:36.465Z,5
2016-07-10T04:05:36.485Z,5
2016-07-10T04:06:36.483Z,5
2016-07-10T04:07:36.447Z,5
2016-07-10T04:08:36.504Z,5
2016-07-10T04:09:36.474Z,5
2016-07-10T04:10:36.509Z,5
2016-07-10T04:11:36.507Z,5
2016-07-10T04:12:36.526Z,5
2016-07-10T04:13:36.546Z,5
2016-07-10T04:14:36.540Z,5
2016-07-10T04:15:36.576Z,5
2016-07-10T04:16:36.534Z,10
2016-07-10T04:17:36.611Z,10
2016-07-10T04:18:36.586Z,10
2016-07-10T04:19:36.564Z,10
2016-07-10T04:20:36.604Z,10
2016-07-10T04:21:36.593Z,10
2016-07-10T04:22:36.609Z,10
2016-07-10T04:23:36.618Z,10
2016-07-10T04:24:36.625Z,10
2016-07-10T04:25:36.647Z,10
2016-07-10T04:26:36.675Z,10
2016-07-10T04:27:36.651Z,10
2016-07-10T04:28:36.692Z,10
2016-07-10T04:29:36.661Z,15
2016-07-10T04:30:36.705Z,15
2016-07-10T04:31:36.713Z,15
2016-07-10T04:32:36.705Z,15
2016-07-10T04:33:36.739Z,15
2016-07-10T04:34:36.731Z,15
2016-07-10T04:35:36.751Z,15
2016-07-10T04:36:36.717Z,15
2016-07-10T04:37:36.719Z,15
2016-07-10T04:38:36.736Z,15
2016-07-10T04:39:36.749Z,15
2016-07-10T04:40:36.734Z,15
2016-07-10T04:41:36.762Z,15
2016-07-10T04:42:36.765Z,15
2016-07-10T04:43:36.806Z,15
2016-07-10T04:44:36.814Z,15
2016-07-10T04:45:36.773Z,15
2016-07-10T04:46:36.835Z,15
2016-07-10T04:47:36.940Z,15
2016-07-10T04:48:36.873Z,15
2016-07-10T04:49:36.865Z,15
2016-07-10T04:50:36.896Z,15
2016-07-10T04:51:36.892Z,15
2016-07-10T04:52:36.881Z,15
2016-07-10T04:53:36.887Z,15
2016-07-10T04:54:36.907Z,15
2016-07-10T04:55:36.899Z,15
2016-07-10T04:56:36.908Z,15
2016-07-10T04:57:36.927Z,15
2016-07-10T04:58:36.957Z,15
2016-07-10T04:59:36.918Z,15
2016-07-10T05:00:36.953Z,15
2016-07-10T05:01:36.970Z,15
2016-07-10T05:02:36.978Z,15
2016-07-10T05:03:36.968Z,15
2016-07-10T05:04:36.974Z,15
2016-07-10T05:05:36.981Z,15
2016-07-10T05:06:36.970Z,15
2016-07-10T05:07:37.023Z,15
2016-07-10T05:08:37.010Z,15
2016-07-10T05:09:37.032Z,15
2016-07-10T05:10:37.080Z,15
2016-07-10T05:11:37.019Z,15
2016-07-10T05:12:37.037Z,15
2016-07-10T05:13:37.068Z,15
2016-07-10T05:14:37.068Z,15
2016-07-10T05:15:37.113Z,15
2016-07-10T05:16:37.096Z,15
2016-07-10T05:17:37.125Z,15
2016-07-10T05:18:37.164Z,15
2016-07-10T05:19:37.154Z,15
2016-07-10T05:20:37.136Z,15
2016-07-10T05:21:37.138Z,15
2016-07-10T05:22:37.155Z,15
2016-07-10T05:23:37.154Z,15
2016-07-10T05:24:37.173Z,15
2016-07-10T05:25:37.185Z,15
2016-07-10T05:26:37.162Z,15
2016-07-10T05:27:37.220Z,15
2016-07-10T05:28:37.189Z,15
2016-07-10T05:29:37.171Z,15
2016-07-10T05:30:37.226Z,15
2016-07-10T05:31:37.227Z,15
2016-07-10T05:32:37.223Z,15
2016-07-10T05:33:37.302Z,15
2016-07-10T05:34:37.216Z,15
2016-07-10T05:35:37.303Z,15
2016-07-10T05:36:37.306Z,15
2016-07-10T05:37:37.322Z,15
2016-07-10T05:38:37.296Z,15
2016-07-10T05:39:37.409Z,15
2016-07-10T05:40:37.343Z,15
2016-07-10T05:41:37.327Z,15
2016-07-10T05:42:37.328Z,15
2016-07-10T05:43:37.338Z,15
2016-07-10T05:44:37.349Z,15
2016-07-10T05:45:37.375Z,15
2016-07-10T05:46:37.399Z,15
2016-07-10T05:47:37.378Z,15
2016-07-10T05:48:37.365Z,15
2016-07-10T05:49:37.446Z,15
2016-07-10T05:50:37.410Z,15
2016-07-10T05:51:37.367Z,15
2016-07-10T05:52:37.437Z,15
2016-07-10T05:53:37.454Z,15
2016-07-10T05:54:37.483Z,15
2016-07-10T05:55:37.467Z,15
2016-07-10T05:56:37.414Z,15
2016-07-10T05:57:37.450Z,15
2016-07-10T05:58:37.527Z,15
2016-07-10T05:59:37.461Z,15
2016-07-10T06:00:38.124Z,15
2016-07-10T06:01:37.467Z,15
2016-07-10T06:02:37.532Z,15
2016-07-10T06:03:37.500Z,15
2016-07-10T06:04:37.504Z,15
2016-07-10T06:05:37.592Z,15
2016-07-10T06:06:37.562Z,15
2016-07-10T06:07:37.562Z,15
2016-07-10T06:08:37.577Z,15
2016-07-10T06:09:37.571Z,15
2016-07-10T06:10:37.553Z,15
2016-07-10T06:11:37.622Z,15
2016-07-10T06:12:37.605Z,15
2016-07-10T06:13:37.619Z,15
2016-07-10T06:14:37.620Z,15
2016-07-10T06:15:37.648Z,15
2016-07-10T06:16:37.667Z,15
2016-07-10T06:17:37.633Z,15
2016-07-10T06:18:37.644Z,15
2016-07-10T06:19:37.679Z,15
2016-07-10T06:20:37.679Z,15
2016-07-10T06:21:37.728Z,15
2016-07-10T06:22:37.675Z,15
2016-07-10T06:23:37.724Z,15
2016-07-10T06:24:37.698Z,15
2016-07-10T06:25:37.732Z,15
2016-07-10T06:26:37.774Z,15
2016-07-10T06:27:37.770Z,15
2016-07-10T06:28:37.729Z,15
2016-07-10T06:29:37.788Z,15
2016-07-10T06:30:37.823Z,15
2016-07-10T06:31:37.773Z,15
2016-07-10T06:32:37.804Z,15
2016-07-10T06:33:37.782Z,15
2016-07-10T06:34:37.775Z,15
2016-07-10T06:35:37.831Z,15
2016-07-10T06:36:37.800Z,15
2016-07-10T06:37:37.845Z,15
2016-07-10T06:38:37.835Z,15
2016-07-10T06:39:37.839Z,15
2016-07-10T06:40:37.856Z,15
2016-07-10T06:41:37.879Z,15
2016-07-10T06:42:37.899Z,15
2016-07-10T06:43:37.883Z,15
2016-07-10T06:44:37.907Z,15
2016-07-10T06:45:37.864Z,15
2016-07-10T06:46:37.921Z,15
2016-07-10T06:47:37.908Z,15
2016-07-10T06:48:37.954Z,15
2016-07-10T06:49:37.912Z,15
2016-07-10T06:50:37.989Z,15
2016-07-10T06:51:37.987Z,15
2016-07-10T06:52:37.987Z,15
2016-07-10T06:53:37.996Z,15
2016-07-10T06:54:37.967Z,15
2016-07-10T06:55:38.002Z,15
2016-07-10T06:56:38.014Z,15
2016-07-10T06:57:38.042Z,15
2016-07-10T06:58:38.017Z,15
2016-07-10T06:59:38.044Z,15
2016-07-10T07:00:38.054Z,15
2016-07-10T07:01:38.026Z,15
2016-07-10T07:02:38.044Z,15
2016-07-10T07:03:38.060Z,15
2016-07-10T07:04:38.073Z,15
2016-07-10T07:05:38.090Z,15
2016-07-10T07:06:38.113Z,15
2016-07-10T07:07:38.122Z,15
2016-07-10T07:08:38.140Z,15
2016-07-10T07:09:38.742Z,15
2016-07-10T07:10:38.098Z,15
2016-07-10T07:11:38.185Z,15
2016-07-10T07:12:38.160Z,15
2016-07-10T07:13:38.152Z,15
2016-07-10T07:14:38.184Z,15
2016-07-10T07:15:38.186Z,15
2016-07-10T07:16:38.200Z,15
2016-07-10T07:17:38.225Z,15
2016-07-10T07:18:38.205Z,15
2016-07-10T07:19:38.233Z,15
2016-07-10T07:20:38.223Z,15
2016-07-10T07:21:38.246Z,15
2016-07-10T07:22:38.189Z,15
2016-07-10T07:23:38.252Z,15
2016-07-10T07:24:38.260Z,15
2016-07-10T07:25:38.313Z,15
2016-07-10T07:26:38.256Z,15
2016-07-10T07:27:38.323Z,15
2016-07-10T07:28:38.331Z,15
2016-07-10T07:29:38.299Z,15
2016-07-10T07:30:38.336Z,15
2016-07-10T07:31:38.324Z,15
2016-07-10T07:32:38.333Z,15
2016-07-10T07:33:38.332Z,15
2016-07-10T07:34:38.356Z,15
2016-07-10T07:35:38.943Z,15
2016-07-10T07:36:38.369Z,15
2016-07-10T07:37:38.357Z,15
2016-07-10T07:38:38.398Z,15
2016-07-10T07:39:38.446Z,15
2016-07-10T07:40:38.406Z,15
2016-07-10T07:41:38.409Z,15
2016-07-10T07:42:38.430Z,15
2016-07-10T07:43:38.424Z,15
2016-07-10T07:44:38.451Z,15
2016-07-10T07:45:38.446Z,15
2016-07-10T07:46:38.444Z,15
2016-07-10T07:47:38.470Z,15
2016-07-10T07:48:38.477Z,15
2016-07-10T07:49:38.466Z,15
2016-07-10T07:50:38.505Z,20
2016-07-10T07:51:38.497Z,20
2016-07-10T07:52:38.496Z,20
2016-07-10T07:53:38.523Z,20
2016-07-10T07:54:38.523Z,20
2016-07-10T07:55:38.572Z,20
2016-07-10T07:56:38.560Z,20
2016-07-10T07:57:38.551Z,20
2016-07-10T07:58:38.528Z,20
2016-07-10T07:59:38.622Z,20
2016-07-10T08:00:38.607Z,20
2016-07-10T08:01:38.629Z,20
2016-07-10T08:02:38.630Z,20
2016-07-10T08:03:38.610Z,20
2016-07-10T08:04:38.628Z,20
2016-07-10T08:05:38.637Z,20
2016-07-10T08:06:38.646Z,20
2016-07-10T08:07:38.645Z,20
2016-07-10T08:08:38.690Z,20
2016-07-10T08:09:38.640Z,20
2016-07-10T08:10:39.334Z,20
2016-07-10T08:11:38.715Z,20
2016-07-10T08:12:38.701Z,20
2016-07-10T08:13:38.700Z,20
2016-07-10T08:14:38.728Z,20
2016-07-10T08:15:38.683Z,20
2016-07-10T08:16:38.742Z,20
2016-07-10T08:17:38.737Z,20
2016-07-10T08:18:38.747Z,20
2016-07-10T08:19:38.753Z,20
2016-07-10T08:20:38.791Z,20
2016-07-10T08:21:38.762Z,20
2016-07-10T08:22:38.812Z,20
2016-07-10T08:23:38.808Z,20
2016-07-10T08:24:38.795Z,20
2016-07-10T08:25:38.769Z,20
2016-07-10T08:26:38.825Z,25
2016-07-10T08:27:38.851Z,25
2016-07-10T08:28:38.859Z,25
2016-07-10T08:29:38.849Z,25
2016-07-10T08:30:38.872Z,25
2016-07-10T08:31:38.889Z,25
2016-07-10T08:32:38.940Z,25
2016-07-10T08:33:38.947Z,25
2016-07-10T08:34:38.895Z,25
2016-07-10T08:35:38.900Z,25
2016-07-10T08:36:38.913Z,25
2016-07-10T08:37:38.944Z,25
2016-07-10T08:38:38.917Z,25
2016-07-10T08:39:38.986Z,25
2016-07-10T08:40:38.982Z,25
2016-07-10T08:41:38.940Z,25
2016-07-10T08:42:38.958Z,25
2016-07-10T08:43:39.018Z,25
2016-07-10T08:44:39.009Z,25
2016-07-10T08:45:38.964Z,25
2016-07-10T08:46:39.038Z,25
2016-07-10T08:47:39.026Z,25
2016-07-10T08:48:39.035Z,25
2016-07-10T08:49:39.041Z,25
2016-07-10T08:50:39.069Z,25
2016-07-10T08:51:39.069Z,25
2016-07-10T08:52:39.091Z,25
2016-07-10T08:53:39.063Z,25
2016-07-10T08:54:39.062Z,25
2016-07-10T08:55:39.080Z,30
2016-07-10T08:56:39.151Z,30
2016-07-10T08:57:39.092Z,30
2016-07-10T08:58:39.101Z,30
2016-07-10T08:59:39.167Z,30
2016-07-10T09:00:39.094Z,30
2016-07-10T09:01:39.172Z,30
2016-07-10T09:02:39.162Z,30
2016-07-10T09:03:39.199Z,30
2016-07-10T09:04:39.182Z,30
2016-07-10T09:05:39.183Z,30
2016-07-10T09:06:39.186Z,30
2016-07-10T09:07:39.217Z,30
2016-07-10T09:08:39.160Z,30
2016-07-10T09:09:39.265Z,30
2016-07-10T09:10:39.247Z,30
2016-07-10T09:11:39.213Z,30
2016-07-10T09:12:39.254Z,30
2016-07-10T09:13:39.247Z,30
2016-07-10T09:14:39.250Z,30
2016-07-10T09:15:39.296Z,30
2016-07-10T09:16:39.315Z,30
2016-07-10T09:17:39.276Z,30
2016-07-10T09:18:39.335Z,30
2016-07-10T09:19:39.309Z,30
2016-07-10T09:20:39.324Z,30
2016-07-10T09:21:39.362Z,30
2016-07-10T09:22:39.340Z,30
2016-07-10T09:23:39.355Z,30
2016-07-10T09:24:39.365Z,30
2016-07-10T09:25:39.363Z,30
2016-07-10T09:26:39.382Z,30
2016-07-10T09:27:39.393Z,35
2016-07-10T09:28:39.396Z,35
2016-07-10T09:29:39.388Z,35
2016-07-10T09:30:39.392Z,35
2016-07-10T09:31:39.408Z,35
2016-07-10T09:32:39.452Z,35
2016-07-10T09:33:39.472Z,35
2016-07-10T09:34:39.444Z,35
2016-07-10T09:35:39.459Z,35
2016-07-10T09:36:39.514Z,35
2016-07-10T09:37:39.480Z,35
2016-07-10T09:38:39.495Z,35
2016-07-10T09:39:39.499Z,35
2016-07-10T09:40:39.506Z,35
2016-07-10T09:41:39.524Z,35
2016-07-10T09:42:39.542Z,35
2016-07-10T09:43:39.509Z,35
2016-07-10T09:44:39.537Z,35
2016-07-10T09:45:39.557Z,35
2016-07-10T09:46:39.575Z,35
2016-07-10T09:47:39.547Z,35
2016-07-10T09:48:39.561Z,35
2016-07-10T09:49:39.566Z,35
2016-07-10T09:50:39.595Z,35
2016-07-10T09:51:39.578Z,35
2016-07-10T09:52:39.629Z,35
2016-07-10T09:53:39.615Z,35
2016-07-10T09:54:39.623Z,35
2016-07-10T09:55:39.625Z,35
2016-07-10T09:56:39.653Z,35
2016-07-10T09:57:39.691Z,35
2016-07-10T09:58:39.693Z,35
2016-07-10T09:59:39.699Z,35
2016-07-10T10:00:39.755Z,40
2016-07-10T10:01:39.709Z,40
2016-07-10T10:02:39.748Z,40
2016-07-10T10:03:39.723Z,40
2016-07-10T10:04:39.769Z,40
2016-07-10T10:05:39.769Z,40
2016-07-10T10:06:39.752Z,40
2016-07-10T10:07:39.765Z,40
2016-07-10T10:08:39.790Z,40
2016-07-10T10:09:39.767Z,40
2016-07-10T10:10:39.780Z,40
2016-07-10T10:11:39.784Z,40
2016-07-10T10:12:39.837Z,40
2016-07-10T10:13:39.811Z,40
2016-07-10T10:14:39.854Z,40
2016-07-10T10:15:39.821Z,40
2016-07-10T10:16:39.814Z,40
2016-07-10T10:17:39.870Z,40
2016-07-10T10:18:39.867Z,40
2016-07-10T10:19:39.892Z,40
2016-07-10T10:20:39.876Z,40
2016-07-10T10:21:39.880Z,40
2016-07-10T10:22:39.878Z,40
2016-07-10T10:23:39.885Z,40
2016-07-10T10:24:39.881Z,40
2016-07-10T10:25:39.922Z,40
2016-07-10T10:26:39.961Z,40
2016-07-10T10:27:39.988Z,40
2016-07-10T10:28:39.941Z,40
2016-07-10T10:29:39.946Z,40
2016-07-10T10:30:39.962Z,40
2016-07-10T10:31:39.988Z,45
2016-07-10T10:32:40.011Z,45
2016-07-10T10:33:40.036Z,45
2016-07-10T10:34:40.020Z,45
2016-07-10T10:35:39.999Z,45
2016-07-10T10:36:40.069Z,45
2016-07-10T10:37:40.056Z,45
2016-07-10T10:38:40.088Z,45
2016-07-10T10:39:40.193Z,45
2016-07-10T10:40:40.068Z,45
2016-07-10T10:41:40.147Z,45
2016-07-10T10:42:40.129Z,45
2016-07-10T10:43:40.110Z,45
2016-07-10T10:44:40.128Z,45
2016-07-10T10:45:40.119Z,45
2016-07-10T10:46:40.112Z,45
2016-07-10T10:47:40.158Z,45
2016-07-10T10:48:40.175Z,45
2016-07-10T10:49:40.158Z,45
2016-07-10T10:50:40.222Z,45
2016-07-10T10:51:40.150Z,45
2016-07-10T10:52:40.166Z,45
2016-07-10T10:53:40.223Z,45
2016-07-10T10:54:40.221Z,45
2016-07-10T10:55:40.197Z,45
2016-07-10T10:56:40.246Z,45
2016-07-10T10:57:40.261Z,45
2016-07-10T10:58:40.286Z,45
2016-07-10T10:59:40.262Z,45
2016-07-10T11:00:40.261Z,45
2016-07-10T11:01:40.259Z,45
2016-07-10T11:02:40.278Z,45
2016-07-10T11:03:40.275Z,45
2016-07-10T11:04:40.283Z,45
2016-07-10T11:05:40.305Z,45
2016-07-10T11:06:40.284Z,45
2016-07-10T11:07:40.305Z,45
2016-07-10T11:08:40.340Z,45
2016-07-10T11:09:40.334Z,45
2016-07-10T11:10:40.320Z,45
2016-07-10T11:11:41.026Z,50
2016-07-10T11:12:40.328Z,50
2016-07-10T11:13:40.402Z,50
2016-07-10T11:14:40.402Z,45
2016-07-10T11:15:40.392Z,50
2016-07-10T11:16:40.438Z,50
2016-07-10T11:17:40.398Z,45
2016-07-10T11:18:40.439Z,45
2016-07-10T11:19:40.468Z,50
2016-07-10T11:20:41.035Z,50
2016-07-10T11:21:40.447Z,50
2016-07-10T11:22:40.466Z,50
2016-07-10T11:23:40.447Z,50
2016-07-10T11:24:40.467Z,50
2016-07-10T11:25:40.517Z,50
2016-07-10T11:26:40.461Z,50
2016-07-10T11:27:40.537Z,50
2016-07-10T11:28:40.529Z,50
2016-07-10T11:29:40.543Z,50
2016-07-10T11:30:40.541Z,50
2016-07-10T11:31:40.596Z,50
2016-07-10T11:32:40.590Z,50
2016-07-10T11:33:40.568Z,50
2016-07-10T11:34:40.555Z,50
2016-07-10T11:35:40.601Z,50
2016-07-10T11:36:40.566Z,50
2016-07-10T11:37:40.632Z,50
2016-07-10T11:38:40.611Z,50
2016-07-10T11:39:40.647Z,50
2016-07-10T11:40:40.654Z,50
2016-07-10T11:41:40.682Z,50
2016-07-10T11:42:40.646Z,50
2016-07-10T11:43:40.654Z,50
2016-07-10T11:44:40.728Z,50
2016-07-10T11:45:40.710Z,50
2016-07-10T11:46:40.731Z,50
2016-07-10T11:47:40.700Z,50
2016-07-10T11:48:40.738Z,50
2016-07-10T11:49:40.708Z,50
2016-07-10T11:50:40.741Z,50
2016-07-10T11:51:40.775Z,50
2016-07-10T11:52:40.759Z,50
2016-07-10T11:53:40.809Z,50
2016-07-10T11:54:40.814Z,50
2016-07-10T11:55:40.798Z,50
2016-07-10T11:56:40.801Z,50
2016-07-10T11:57:40.826Z,50
2016-07-10T11:58:40.822Z,50
2016-07-10T11:59:40.830Z,50
2016-07-10T12:00:40.814Z,50
2016-07-10T12:01:40.842Z,50
2016-07-10T12:02:40.859Z,50
2016-07-10T12:03:40.909Z,50
2016-07-10T12:04:40.873Z,50
2016-07-10T12:05:40.911Z,45
2016-07-10T12:06:40.918Z,45
2016-07-10T12:07:40.939Z,45
2016-07-10T12:08:40.937Z,45
2016-07-10T12:09:40.930Z,45
2016-07-10T12:10:40.979Z,45
2016-07-10T12:11:40.944Z,45
2016-07-10T12:12:40.984Z,45
2016-07-10T12:13:40.985Z,45
2016-07-10T12:14:41.007Z,45
2016-07-10T12:15:41.003Z,45
2016-07-10T12:16:41.012Z,45
2016-07-10T12:17:40.991Z,45
2016-07-10T12:18:41.045Z,45
2016-07-10T12:19:41.057Z,45
2016-07-10T12:20:41.012Z,45
2016-07-10T12:21:41.050Z,45
2016-07-10T12:22:41.031Z,45
2016-07-10T12:23:41.079Z,45
2016-07-10T12:24:41.116Z,45
2016-07-10T12:25:41.109Z,45
2016-07-10T12:26:41.124Z,50
2016-07-10T12:27:41.143Z,50
2016-07-10T12:28:41.120Z,50
2016-07-10T12:29:41.125Z,50
2016-07-10T12:30:41.130Z,50
2016-07-10T12:31:41.178Z,50
2016-07-10T12:32:41.161Z,50
2016-07-10T12:33:41.203Z,50
2016-07-10T12:34:41.214Z,50
2016-07-10T12:35:41.220Z,50
2016-07-10T12:36:41.226Z,50
2016-07-10T12:37:41.210Z,50
2016-07-10T12:38:41.179Z,50
2016-07-10T12:39:41.272Z,50
2016-07-10T12:40:41.426Z,50
2016-07-10T12:41:41.248Z,50
2016-07-10T12:42:41.239Z,50
2016-07-10T12:43:41.296Z,50
2016-07-10T12:44:41.300Z,45
2016-07-10T12:45:41.333Z,45
2016-07-10T12:46:41.322Z,45
2016-07-10T12:47:41.303Z,45
2016-07-10T12:48:41.891Z,45
2016-07-10T12:49:41.349Z,45
2016-07-10T12:50:41.396Z,45
2016-07-10T12:51:41.380Z,50
2016-07-10T12:52:41.367Z,50
2016-07-10T12:53:41.365Z,50
2016-07-10T12:54:41.358Z,45
2016-07-10T12:55:41.433Z,45
2016-07-10T12:56:41.387Z,45
2016-07-10T12:57:41.405Z,45
2016-07-10T12:58:42.034Z,45
2016-07-10T12:59:42.022Z,45
2016-07-10T13:00:41.448Z,45
2016-07-10T13:01:41.452Z,45
2016-07-10T13:02:41.415Z,45
2016-07-10T13:03:41.479Z,45
2016-07-10T13:04:41.492Z,45
2016-07-10T13:05:41.507Z,45
2016-07-10T13:06:41.488Z,45
2016-07-10T13:07:41.508Z,45
2016-07-10T13:08:41.551Z,45
2016-07-10T13:09:41.559Z,45
2016-07-10T13:10:41.517Z,45
2016-07-10T13:11:41.528Z,45
2016-07-10T13:12:42.218Z,45
2016-07-10T13:13:41.609Z,45
2016-07-10T13:14:41.607Z,45
2016-07-10T13:15:41.602Z,45
2016-07-10T13:16:41.581Z,45
2016-07-10T13:17:42.240Z,45
2016-07-10T13:18:41.629Z,45
2016-07-10T13:19:41.666Z,40
2016-07-10T13:20:41.659Z,40
2016-07-10T13:21:41.649Z,40
2016-07-10T13:22:41.652Z,40
2016-07-10T13:23:41.646Z,40
2016-07-10T13:24:41.698Z,40
2016-07-10T13:25:41.697Z,40
2016-07-10T13:26:41.735Z,40
2016-07-10T13:27:41.717Z,40
2016-07-10T13:28:41.778Z,40
2016-07-10T13:29:41.743Z,40
2016-07-10T13:30:41.711Z,40
2016-07-10T13:31:41.788Z,40
2016-07-10T13:32:41.752Z,40
2016-07-10T13:33:41.789Z,40
2016-07-10T13:34:41.832Z,40
2016-07-10T13:35:41.799Z,40
2016-07-10T13:36:41.799Z,40
2016-07-10T13:37:41.831Z,40
2016-07-10T13:38:41.861Z,40
2016-07-10T13:39:41.829Z,40
2016-07-10T13:40:42.615Z,40
2016-07-10T13:41:41.908Z,40
2016-07-10T13:42:41.899Z,40
2016-07-10T13:43:41.901Z,40
2016-07-10T13:44:41.920Z,40
2016-07-10T13:45:41.856Z,40
2016-07-10T13:46:42.536Z,40
2016-07-10T13:47:41.956Z,40
2016-07-10T13:48:41.946Z,40
2016-07-10T13:49:41.968Z,40
2016-07-10T13:50:41.959Z,40
2016-07-10T13:51:41.968Z,40
2016-07-10T13:52:41.969Z,40
2016-07-10T13:53:41.999Z,40
2016-07-10T13:54:42.003Z,40
2016-07-10T13:55:42.051Z,40
2016-07-10T13:56:42.064Z,40
2016-07-10T13:57:42.001Z,40
2016-07-10T13:58:42.070Z,40
2016-07-10T13:59:42.010Z,40
2016-07-10T14:00:42.037Z,40
2016-07-10T14:01:42.026Z,35
2016-07-10T14:02:42.100Z,35
2016-07-10T14:03:42.088Z,35
2016-07-10T14:04:42.073Z,35
2016-07-10T14:05:42.089Z,35
2016-07-10T14:06:42.137Z,35
2016-07-10T14:07:42.117Z,35
2016-07-10T14:08:42.118Z,35
2016-07-10T14:09:42.174Z,35
2016-07-10T14:10:42.141Z,35
2016-07-10T14:11:42.164Z,35
2016-07-10T14:12:42.166Z,35
2016-07-10T14:13:42.174Z,35
2016-07-10T14:14:42.203Z,35
2016-07-10T14:15:42.185Z,35
2016-07-10T14:16:42.211Z,35
2016-07-10T14:17:42.221Z,35
2016-07-10T14:18:42.205Z,35
2016-07-10T14:19:42.231Z,35
2016-07-10T14:20:42.250Z,35
2016-07-10T14:21:42.242Z,35
2016-07-10T14:22:42.283Z,35
2016-07-10T14:23:42.302Z,35
2016-07-10T14:24:42.287Z,35